Time;durP1;ratioP1;P1;durP2;ratioP2;P2;SDS_P1;SDS_P2;PMS_P1;PMS_P2;Temp;Humidity;BMP_temperature;BMP_pressure;BME280_temperature;BME280_humidity;BME280_pressure;Samples;Min_cycle;Max_cycle;Signal;HPM_P1;HPM_P2
2023/07/18 00:01:31;;;;;;;4.50;2.47;;;18.00;99.90;;;;;;5042472;28;20456;-74
2023/07/18 00:03:56;;;;;;;4.80;2.73;;;18.10;99.90;;;;;;5042107;28;20428;-74
2023/07/18 00:06:24;;;;;;;2.90;2.70;;;18.10;99.90;;;;;;5035436;28;20413;-73
2023/07/18 00:08:50;;;;;;;3.20;2.03;;;18.10;99.90;;;;;;5035394;28;20171;-73
2023/07/18 00:11:16;;;;;;;4.80;2.40;;;18.10;99.90;;;;;;5037403;28;20992;-73
2023/07/18 00:13:42;;;;;;;3.37;2.47;;;18.20;99.90;;;;;;5050404;28;20474;-74
2023/07/18 00:16:08;;;;;;;9.23;2.50;;;18.20;99.90;;;;;;5054697;28;20188;-73
2023/07/18 00:18:34;;;;;;;2.47;2.00;;;18.40;99.90;;;;;;5036631;28;20202;-73
2023/07/18 00:20:59;;;;;;;2.60;2.40;;;18.00;99.90;;;;;;5034957;28;20455;-73
2023/07/18 00:23:25;;;;;;;3.10;2.80;;;18.00;99.90;;;;;;5035141;28;20189;-73
2023/07/18 00:25:51;;;;;;;3.23;2.90;;;18.00;99.90;;;;;;5034991;28;20174;-73
2023/07/18 00:28:16;;;;;;;5.57;2.60;;;17.90;99.90;;;;;;5041955;28;20181;-73
2023/07/18 00:30:42;;;;;;;3.70;3.13;;;17.90;99.90;;;;;;5044873;28;20304;-73
2023/07/18 00:33:07;;;;;;;4.07;2.63;;;17.70;99.90;;;;;;5054831;28;20658;-74
2023/07/18 00:35:34;;;;;;;3.53;2.50;;;17.70;99.90;;;;;;5054762;28;20174;-74
2023/07/18 00:38:00;;;;;;;3.50;3.03;;;17.70;99.90;;;;;;5054034;28;20200;-74
2023/07/18 00:40:25;;;;;;;2.73;2.47;;;17.70;99.90;;;;;;5045259;28;20543;-74
2023/07/18 00:42:51;;;;;;;2.83;2.20;;;17.80;99.90;;;;;;5042029;28;20209;-73
2023/07/18 00:45:17;;;;;;;3.20;2.33;;;17.90;99.90;;;;;;5046201;28;20235;-73
2023/07/18 00:47:45;;;;;;;2.93;2.73;;;18.00;99.90;;;;;;5054022;28;20169;-74
2023/07/18 00:50:15;;;;;;;2.70;2.50;;;18.00;99.90;;;;;;5054260;28;20231;-73
2023/07/18 00:52:44;;;;;;;10.20;2.63;;;18.40;99.90;;;;;;5053676;28;20514;-74
2023/07/18 00:55:11;;;;;;;4.07;2.33;;;18.00;99.90;;;;;;5046164;28;20485;-74
2023/07/18 00:57:39;;;;;;;2.60;2.40;;;17.90;99.90;;;;;;5052913;28;20463;-73
2023/07/18 01:00:11;;;;;;;4.83;2.43;;;17.80;99.90;;;;;;5053868;28;20419;-73
2023/07/18 01:02:39;;;;;;;4.53;2.40;;;17.80;99.90;;;;;;5043920;28;20434;-74
2023/07/18 01:05:06;;;;;;;4.03;2.53;;;17.90;99.90;;;;;;5045356;28;20430;-73
2023/07/18 01:07:32;;;;;;;2.80;2.23;;;17.90;99.90;;;;;;5041101;28;20440;-73
2023/07/18 01:10:23;;;;;;;2.20;2.00;;;17.80;99.90;;;;;;5042114;28;20436;-73
2023/07/18 01:12:49;;;;;;;3.97;2.20;;;17.50;99.90;;;;;;5034290;28;20171;-73
2023/07/18 01:15:14;;;;;;;3.10;2.80;;;17.30;99.90;;;;;;5034131;28;20421;-73
2023/07/18 01:17:43;;;;;;;6.60;2.23;;;17.30;99.90;;;;;;5034687;28;20467;-73
2023/07/18 01:20:12;;;;;;;2.57;2.37;;;17.30;99.90;;;;;;5036627;28;20170;-73
2023/07/18 01:22:38;;;;;;;3.07;2.43;;;17.40;99.90;;;;;;5050617;28;20431;-73
2023/07/18 01:25:04;;;;;;;6.13;2.63;;;17.30;99.90;;;;;;5053845;28;20420;-73
2023/07/18 01:27:30;;;;;;;4.20;2.60;;;17.30;99.90;;;;;;5053946;28;20417;-73
2023/07/18 01:29:55;;;;;;;2.93;2.63;;;17.30;99.90;;;;;;5050790;28;20634;-73
2023/07/18 01:32:21;;;;;;;4.07;3.10;;;17.20;99.90;;;;;;5045287;28;20212;-73
2023/07/18 01:34:46;;;;;;;3.77;2.83;;;17.10;99.90;;;;;;5052280;28;20184;-73
2023/07/18 01:37:15;;;;;;;9.87;2.27;;;17.10;99.90;;;;;;5052621;28;20213;-73
2023/07/18 01:39:40;;;;;;;2.57;2.37;;;17.10;99.90;;;;;;5041350;28;20170;-73
2023/07/18 01:42:06;;;;;;;3.60;2.30;;;16.90;99.90;;;;;;5046150;28;20820;-73
2023/07/18 01:44:33;;;;;;;2.10;1.90;;;16.80;99.90;;;;;;5033511;28;20185;-73
2023/07/18 01:46:59;;;;;;;4.07;2.30;;;17.00;99.90;;;;;;5033463;28;20562;-73
2023/07/18 01:49:24;;;;;;;3.70;2.60;;;16.80;99.90;;;;;;5033253;28;20423;-73
2023/07/18 01:51:50;;;;;;;2.40;1.97;;;16.90;99.90;;;;;;5039245;28;20285;-73
2023/07/18 01:54:15;;;;;;;2.90;2.13;;;17.00;99.90;;;;;;5042841;28;20173;-73
2023/07/18 01:56:41;;;;;;;5.60;2.87;;;16.90;99.90;;;;;;5051181;28;20177;-74
2023/07/18 01:59:06;;;;;;;3.20;2.67;;;16.90;99.90;;;;;;5052833;28;20205;-73
2023/07/18 02:01:32;;;;;;;3.50;2.80;;;16.90;99.90;;;;;;5053111;28;20189;-73
2023/07/18 02:03:58;;;;;;;4.00;2.07;;;17.20;99.90;;;;;;5047443;28;20186;-74
2023/07/18 02:06:24;;;;;;;3.00;2.80;;;16.90;99.90;;;;;;5041307;28;20174;-74
2023/07/18 02:08:51;;;;;;;2.63;2.43;;;16.60;99.90;;;;;;5037230;28;20180;-73
2023/07/18 02:11:17;;;;;;;3.20;2.47;;;16.50;99.90;;;;;;5046193;28;20843;-73
2023/07/18 02:13:42;;;;;;;2.90;2.60;;;16.60;99.90;;;;;;5051799;28;20440;-73
2023/07/18 02:16:08;;;;;;;3.73;2.43;;;16.60;99.90;;;;;;5051963;28;20165;-73
2023/07/18 02:18:33;;;;;;;3.47;2.90;;;16.70;99.90;;;;;;5040329;28;20202;-73
2023/07/18 02:20:59;;;;;;;2.90;2.20;;;16.60;99.90;;;;;;5036908;28;20697;-73
2023/07/18 02:23:24;;;;;;;3.70;3.20;;;16.50;99.90;;;;;;5052759;28;20212;-73
2023/07/18 02:25:50;;;;;;;3.57;2.63;;;16.30;99.90;;;;;;5051066;28;20172;-73
2023/07/18 02:28:15;;;;;;;6.13;2.90;;;16.30;99.90;;;;;;5044175;28;20180;-73
2023/07/18 02:30:42;;;;;;;4.70;2.67;;;16.40;99.90;;;;;;5051525;28;20197;-73
2023/07/18 02:33:08;;;;;;;2.73;2.33;;;16.40;99.90;;;;;;5052560;28;20166;-73
2023/07/18 02:35:33;;;;;;;7.80;2.40;;;16.30;99.90;;;;;;5052107;28;20431;-73
2023/07/18 02:37:59;;;;;;;3.77;2.90;;;16.20;99.90;;;;;;5052303;28;20197;-73
2023/07/18 02:40:24;;;;;;;2.97;2.73;;;16.10;99.90;;;;;;5051051;28;20248;-73
2023/07/18 02:42:50;;;;;;;2.80;2.30;;;16.00;99.90;;;;;;5042123;28;20178;-74
2023/07/18 02:45:15;;;;;;;8.10;3.50;;;16.00;99.90;;;;;;5044080;28;20200;-73
2023/07/18 02:47:41;;;;;;;3.80;2.83;;;15.90;99.90;;;;;;5041778;28;20178;-73
2023/07/18 02:50:07;;;;;;;2.83;2.53;;;15.90;99.90;;;;;;5051976;28;20185;-74
2023/07/18 02:52:33;;;;;;;4.60;2.83;;;16.10;99.90;;;;;;5051561;28;20183;-73
2023/07/18 02:54:59;;;;;;;4.30;2.77;;;16.20;99.90;;;;;;5052279;28;20502;-74
2023/07/18 02:57:24;;;;;;;3.80;2.40;;;16.20;99.90;;;;;;5049430;28;20539;-73
2023/07/18 02:59:50;;;;;;;3.47;2.67;;;16.00;99.90;;;;;;5043525;28;20201;-73
2023/07/18 03:02:16;;;;;;;4.17;3.00;;;16.00;99.90;;;;;;5035928;28;20202;-73
2023/07/18 03:04:42;;;;;;;2.70;2.50;;;16.00;99.90;;;;;;5051058;28;20185;-73
2023/07/18 03:07:07;;;;;;;4.80;2.43;;;15.90;99.90;;;;;;5043470;28;20169;-73
2023/07/18 03:09:34;;;;;;;4.07;2.87;;;15.80;99.90;;;;;;5033582;28;20474;-73
2023/07/18 03:11:59;;;;;;;2.63;2.40;;;15.80;99.90;;;;;;5032052;28;20679;-74
2023/07/18 03:14:25;;;;;;;3.03;2.57;;;15.90;99.90;;;;;;5034767;28;20473;-74
2023/07/18 03:16:50;;;;;;;5.00;2.93;;;16.00;99.90;;;;;;5039208;28;20558;-73
2023/07/18 03:19:16;;;;;;;2.70;2.50;;;16.00;99.90;;;;;;5039637;28;20202;-73
2023/07/18 03:21:43;;;;;;;3.63;3.10;;;15.90;99.90;;;;;;5041196;28;20190;-73
2023/07/18 03:24:09;;;;;;;4.57;3.63;;;15.90;99.90;;;;;;5051163;28;20235;-73
2023/07/18 03:26:38;;;;;;;2.83;2.50;;;15.70;99.90;;;;;;5046609;28;20432;-73
2023/07/18 03:29:07;;;;;;;4.03;2.77;;;15.50;99.90;;;;;;5055798;28;20169;-73
2023/07/18 03:31:35;;;;;;;2.83;2.63;;;15.40;99.90;;;;;;5053545;28;20517;-74
2023/07/18 03:34:01;;;;;;;4.50;2.70;;;15.40;99.90;;;;;;5055895;28;20430;-74
2023/07/18 03:36:27;;;;;;;3.50;3.20;;;15.40;99.90;;;;;;5051316;28;20439;-73
2023/07/18 03:38:53;;;;;;;4.07;3.60;;;15.40;99.90;;;;;;5049452;28;20468;-73
2023/07/18 03:41:19;;;;;;;4.10;3.70;;;15.30;99.90;;;;;;5048915;28;20264;-73
2023/07/18 03:43:44;;;;;;;9.40;3.20;;;15.20;99.90;;;;;;5046734;28;20197;-74
2023/07/18 03:46:10;;;;;;;4.33;2.70;;;15.60;99.90;;;;;;5045314;28;20992;-73
2023/07/18 03:48:37;;;;;;;3.27;2.30;;;15.30;99.90;;;;;;5052019;28;20272;-73
2023/07/18 03:51:05;;;;;;;5.33;3.00;;;15.20;99.90;;;;;;5052177;28;20216;-73
2023/07/18 03:53:30;;;;;;;2.83;2.60;;;15.20;99.90;;;;;;5052107;28;20440;-73
2023/07/18 03:56:02;;;;;;;3.50;2.47;;;15.30;99.90;;;;;;5048063;28;20952;-73
2023/07/18 03:58:29;;;;;;;2.97;2.57;;;15.50;99.90;;;;;;5051971;28;20233;-74
2023/07/18 04:00:54;;;;;;;3.53;2.53;;;15.80;99.90;;;;;;5052707;28;20448;-73
2023/07/18 04:03:20;;;;;;;3.17;2.87;;;15.70;99.90;;;;;;5054724;28;20434;-74
2023/07/18 04:05:45;;;;;;;3.00;2.30;;;15.60;99.90;;;;;;5042544;28;20178;-73
2023/07/18 04:08:11;;;;;;;3.93;3.20;;;15.60;99.90;;;;;;5048050;28;20185;-73
2023/07/18 04:10:36;;;;;;;4.70;3.20;;;15.60;99.90;;;;;;5052962;28;20217;-73
2023/07/18 04:13:02;;;;;;;4.40;2.47;;;15.60;99.90;;;;;;5050551;28;20702;-73
2023/07/18 04:15:27;;;;;;;3.03;2.77;;;15.60;99.90;;;;;;5053844;28;20200;-73
2023/07/18 04:17:53;;;;;;;4.67;2.90;;;15.80;99.90;;;;;;5053615;28;20213;-74
2023/07/18 04:20:19;;;;;;;3.77;2.53;;;15.90;99.90;;;;;;5050213;28;20173;-73
2023/07/18 04:22:45;;;;;;;4.57;2.33;;;16.00;99.90;;;;;;5041832;28;20228;-73
2023/07/18 04:25:11;;;;;;;4.13;3.27;;;16.00;99.90;;;;;;5049352;28;20836;-74
2023/07/18 04:27:36;;;;;;;7.20;2.40;;;16.10;99.90;;;;;;5051977;28;20181;-74
2023/07/18 04:30:02;;;;;;;5.20;2.77;;;16.30;99.90;;;;;;5045327;28;20279;-74
2023/07/18 04:32:27;;;;;;;2.40;2.20;;;16.40;99.90;;;;;;5051131;28;20235;-74
2023/07/18 04:34:53;;;;;;;3.00;2.47;;;16.50;99.90;;;;;;5044301;28;20545;-73
2023/07/18 04:37:18;;;;;;;3.03;2.60;;;16.70;99.90;;;;;;5051204;28;20201;-73
2023/07/18 04:39:44;;;;;;;4.43;3.50;;;16.70;99.90;;;;;;5046171;28;20182;-74
2023/07/18 04:42:11;;;;;;;3.23;2.40;;;16.80;99.90;;;;;;5048640;28;20197;-73
2023/07/18 04:44:37;;;;;;;4.80;2.60;;;16.90;99.90;;;;;;5043905;28;20535;-73
2023/07/18 04:47:03;;;;;;;5.33;2.80;;;16.90;99.90;;;;;;5046206;28;20841;-73
2023/07/18 04:49:29;;;;;;;2.60;2.33;;;17.00;99.90;;;;;;5046817;28;20439;-73
2023/07/18 04:51:55;;;;;;;3.57;2.70;;;17.20;99.90;;;;;;5045803;28;20459;-74
2023/07/18 04:54:20;;;;;;;5.17;3.10;;;17.30;99.90;;;;;;5051193;28;20382;-73
2023/07/18 04:56:46;;;;;;;4.13;2.50;;;17.50;99.90;;;;;;5052121;28;20212;-73
2023/07/18 04:59:11;;;;;;;7.17;3.03;;;17.70;99.90;;;;;;5043167;28;20228;-73
2023/07/18 05:01:39;;;;;;;3.60;2.83;;;17.70;99.90;;;;;;5048466;28;21355;-73
2023/07/18 05:04:05;;;;;;;4.80;3.57;;;17.90;99.90;;;;;;5042208;28;20189;-74
2023/07/18 05:06:31;;;;;;;3.93;2.80;;;18.20;99.90;;;;;;5043597;28;20443;-75
2023/07/18 05:08:56;;;;;;;7.07;3.17;;;18.30;99.90;;;;;;5051551;28;20188;-73
2023/07/18 05:11:22;;;;;;;3.03;2.60;;;18.80;99.90;;;;;;5044117;28;20210;-74
2023/07/18 05:13:47;;;;;;;4.13;3.73;;;18.40;99.90;;;;;;5048067;28;20185;-74
2023/07/18 05:16:13;;;;;;;2.90;2.70;;;18.60;99.90;;;;;;5052408;28;20599;-74
2023/07/18 05:18:38;;;;;;;4.17;3.10;;;18.70;99.90;;;;;;5049716;28;20208;-73
2023/07/18 05:21:04;;;;;;;3.87;3.00;;;18.90;99.90;;;;;;5045735;28;20196;-69
2023/07/18 05:23:29;;;;;;;5.83;2.93;;;19.10;99.90;;;;;;5050849;28;20173;-69
2023/07/18 05:25:56;;;;;;;6.30;3.03;;;19.20;99.90;;;;;;5050843;28;20257;-68
2023/07/18 05:28:22;;;;;;;3.80;3.30;;;19.20;99.90;;;;;;5049164;28;20260;-69
2023/07/18 05:30:47;;;;;;;4.80;2.83;;;19.30;99.90;;;;;;5044452;28;20534;-69
2023/07/18 05:33:13;;;;;;;5.33;2.97;;;19.40;99.90;;;;;;5047341;28;21037;-68
2023/07/18 05:35:38;;;;;;;7.43;2.53;;;19.60;99.90;;;;;;5042693;28;20178;-69
2023/07/18 05:38:04;;;;;;;5.30;2.80;;;19.70;99.90;;;;;;5033123;28;20272;-69
2023/07/18 05:40:29;;;;;;;3.50;3.20;;;19.80;99.90;;;;;;5032519;28;20682;-69
2023/07/18 05:42:55;;;;;;;3.20;2.97;;;19.80;99.90;;;;;;5033394;28;20312;-69
2023/07/18 05:45:21;;;;;;;3.93;3.27;;;19.90;99.90;;;;;;5033436;28;20699;-68
2023/07/18 05:47:46;;;;;;;7.10;4.43;;;20.00;99.90;;;;;;5033201;28;20216;-69
2023/07/18 05:50:12;;;;;;;6.10;3.33;;;20.10;99.90;;;;;;5043997;28;20184;-69
2023/07/18 05:52:38;;;;;;;4.30;3.57;;;20.20;99.90;;;;;;5045318;28;20197;-69
2023/07/18 05:55:04;;;;;;;5.53;3.50;;;20.20;99.90;;;;;;5042508;28;20657;-68
2023/07/18 05:57:30;;;;;;;3.70;2.93;;;20.40;99.90;;;;;;5035148;28;20488;-68
2023/07/18 05:59:55;;;;;;;2.93;2.67;;;20.60;99.90;;;;;;5033034;28;20475;-69
2023/07/18 06:02:21;;;;;;;5.13;3.03;;;20.70;99.90;;;;;;5032889;28;20552;-69
2023/07/18 06:04:48;;;;;;;6.13;3.00;;;20.80;99.90;;;;;;5042754;28;20544;-70
2023/07/18 06:07:14;;;;;;;3.70;3.10;;;20.70;99.90;;;;;;5034959;28;20463;-70
2023/07/18 06:09:39;;;;;;;5.83;3.33;;;20.90;99.90;;;;;;5032556;28;20459;-70
2023/07/18 06:12:06;;;;;;;4.90;3.83;;;21.00;99.90;;;;;;5032732;28;20460;-69
2023/07/18 06:14:32;;;;;;;10.10;5.47;;;21.20;99.90;;;;;;5032783;28;20181;-69
2023/07/18 06:16:58;;;;;;;4.47;4.07;;;21.40;99.90;;;;;;5032960;28;20409;-70
2023/07/18 06:19:23;;;;;;;6.47;3.47;;;21.60;99.90;;;;;;5035314;28;21139;-70
2023/07/18 06:21:49;;;;;;;7.50;6.80;;;21.70;99.90;;;;;;5039733;28;20202;-69
2023/07/18 06:24:16;;;;;;;6.10;4.53;;;21.70;99.90;;;;;;5049133;28;20591;-71
2023/07/18 06:26:48;;;;;;;7.50;2.97;;;21.90;99.90;;;;;;5041540;28;20459;-69
2023/07/18 06:29:17;;;;;;;5.27;3.70;;;22.10;99.90;;;;;;5032329;28;20417;-69
2023/07/18 06:31:44;;;;;;;3.70;3.40;;;22.10;99.90;;;;;;5032744;28;20441;-69
2023/07/18 06:34:09;;;;;;;6.23;3.00;;;22.10;99.90;;;;;;5032513;28;20425;-70
2023/07/18 06:36:35;;;;;;;5.30;3.07;;;22.30;99.90;;;;;;5036854;28;20444;-69
2023/07/18 06:39:00;;;;;;;4.03;2.90;;;22.50;99.90;;;;;;5039412;28;20589;-69
2023/07/18 06:41:26;;;;;;;4.33;2.97;;;22.50;99.90;;;;;;5043119;28;20189;-70
2023/07/18 06:43:52;;;;;;;3.37;2.97;;;22.70;99.90;;;;;;5032293;28;20197;-69
2023/07/18 06:46:17;;;;;;;4.70;3.17;;;22.60;99.90;;;;;;5032359;28;20249;-69
2023/07/18 06:48:43;;;;;;;3.43;2.60;;;22.50;99.90;;;;;;5032074;28;20211;-69
2023/07/18 06:51:08;;;;;;;5.00;3.23;;;22.50;99.90;;;;;;5032064;28;20186;-71
2023/07/18 06:53:34;;;;;;;3.63;3.07;;;22.60;99.90;;;;;;5040728;28;20181;-69
2023/07/18 06:55:59;;;;;;;7.00;3.00;;;22.70;99.50;;;;;;5032400;28;20182;-69
2023/07/18 06:58:25;;;;;;;6.90;3.03;;;22.50;99.70;;;;;;5031757;28;20201;-69
2023/07/18 07:00:51;;;;;;;6.63;2.57;;;22.70;99.60;;;;;;5031531;28;20592;-69
2023/07/18 07:03:16;;;;;;;4.60;3.13;;;23.00;98.90;;;;;;5032133;28;20249;-69
2023/07/18 07:05:43;;;;;;;5.83;3.90;;;23.40;97.90;;;;;;5034174;28;20178;-69
2023/07/18 07:08:10;;;;;;;3.67;2.57;;;23.40;96.70;;;;;;5045236;28;20193;-70
2023/07/18 07:10:36;;;;;;;3.80;3.27;;;23.40;97.70;;;;;;5050310;28;20509;-67
2023/07/18 07:13:02;;;;;;;4.00;3.70;;;23.50;96.40;;;;;;5051769;28;20958;-69
2023/07/18 07:15:27;;;;;;;4.50;3.10;;;23.80;96.10;;;;;;5051922;28;20416;-70
2023/07/18 07:17:53;;;;;;;6.90;3.80;;;24.10;94.90;;;;;;5051862;28;20697;-69
2023/07/18 07:20:19;;;;;;;3.53;3.07;;;24.20;93.60;;;;;;5051504;28;20208;-68
2023/07/18 07:22:46;;;;;;;6.73;3.00;;;23.90;94.40;;;;;;5047679;28;20220;-69
2023/07/18 07:25:13;;;;;;;7.53;3.87;;;24.20;93.60;;;;;;5040048;28;20474;-69
2023/07/18 07:27:39;;;;;;;5.70;3.57;;;24.30;92.90;;;;;;5031791;28;20936;-69
2023/07/18 07:30:05;;;;;;;4.03;2.90;;;24.50;92.00;;;;;;5031491;28;20507;-68
2023/07/18 07:32:31;;;;;;;4.93;3.60;;;24.50;91.30;;;;;;5031946;28;20419;-69
2023/07/18 07:34:57;;;;;;;4.67;3.23;;;24.50;90.90;;;;;;5031847;28;20421;-70
2023/07/18 07:37:23;;;;;;;3.20;2.90;;;25.00;90.50;;;;;;5031746;28;20166;-69
2023/07/18 07:39:49;;;;;;;5.20;3.27;;;25.30;89.20;;;;;;5033716;28;20516;-68
2023/07/18 07:42:14;;;;;;;2.93;2.47;;;25.70;86.60;;;;;;5039736;28;20197;-69
2023/07/18 07:44:40;;;;;;;3.87;2.73;;;25.90;80.30;;;;;;5031696;28;20933;-69
2023/07/18 07:47:06;;;;;;;3.67;2.30;;;25.80;77.80;;;;;;5031816;28;20579;-70
2023/07/18 07:49:31;;;;;;;4.33;2.37;;;25.80;76.30;;;;;;5031500;28;20178;-69
2023/07/18 07:51:57;;;;;;;6.07;3.30;;;25.40;78.00;;;;;;5031553;28;20194;-68
2023/07/18 07:54:22;;;;;;;4.00;2.90;;;25.60;76.60;;;;;;5031664;28;20170;-69
2023/07/18 07:56:48;;;;;;;4.30;2.67;;;25.90;73.80;;;;;;5039151;28;20208;-68
2023/07/18 07:59:13;;;;;;;6.10;5.50;;;26.00;72.50;;;;;;5035696;28;20268;-69
2023/07/18 08:01:39;;;;;;;3.30;2.40;;;26.10;73.10;;;;;;5031547;28;20195;-68
2023/07/18 08:04:05;;;;;;;3.10;2.70;;;26.40;72.20;;;;;;5031591;28;20162;-69
2023/07/18 08:06:30;;;;;;;4.07;3.30;;;26.70;70.70;;;;;;5031423;28;20174;-69
2023/07/18 08:08:56;;;;;;;3.33;2.70;;;26.90;68.90;;;;;;5031471;28;20544;-70
2023/07/18 08:11:21;;;;;;;4.20;2.73;;;27.20;68.30;;;;;;5032239;28;20198;-70
2023/07/18 08:13:47;;;;;;;7.13;2.67;;;27.50;67.20;;;;;;5044534;28;20184;-69
2023/07/18 08:16:12;;;;;;;4.70;3.30;;;27.50;66.60;;;;;;5043386;28;20178;-69
2023/07/18 08:18:38;;;;;;;2.70;2.37;;;27.60;66.10;;;;;;5033666;28;20210;-68
2023/07/18 08:21:03;;;;;;;3.17;2.67;;;27.90;65.90;;;;;;5034956;28;20186;-69
2023/07/18 08:23:29;;;;;;;2.80;2.60;;;28.10;62.80;;;;;;5035068;28;20167;-70
2023/07/18 08:25:54;;;;;;;2.70;2.50;;;28.00;62.20;;;;;;5037867;28;20235;-69
2023/07/18 08:28:20;;;;;;;3.13;2.30;;;27.60;62.30;;;;;;5046249;28;20197;-69
2023/07/18 08:30:46;;;;;;;2.57;2.37;;;27.70;60.20;;;;;;5034851;28;20198;-68
2023/07/18 08:33:13;;;;;;;4.30;2.80;;;27.60;60.20;;;;;;5034897;28;20829;-70
2023/07/18 08:35:39;;;;;;;4.17;2.30;;;27.30;61.50;;;;;;5034705;28;20194;-69
2023/07/18 08:38:05;;;;;;;2.50;2.30;;;27.60;60.90;;;;;;5034580;28;20496;-71
2023/07/18 08:40:32;;;;;;;2.70;2.50;;;28.00;60.00;;;;;;5034534;28;20201;-70
2023/07/18 08:42:57;;;;;;;3.00;2.70;;;28.50;58.50;;;;;;5035332;28;20447;-69
2023/07/18 08:45:27;;;;;;;5.20;3.20;;;28.60;57.50;;;;;;5044352;28;20417;-69
2023/07/18 08:47:56;;;;;;;4.03;2.50;;;28.90;56.10;;;;;;5042701;28;20668;-69
2023/07/18 08:50:23;;;;;;;6.40;2.50;;;28.70;55.80;;;;;;5034140;28;20441;-69
2023/07/18 08:52:48;;;;;;;4.80;2.70;;;28.70;56.60;;;;;;5034460;28;20421;-69
2023/07/18 08:55:14;;;;;;;3.50;2.60;;;28.90;57.40;;;;;;5034410;28;20775;-69
2023/07/18 08:57:41;;;;;;;3.40;2.47;;;29.40;56.60;;;;;;5034372;28;20210;-70
2023/07/18 09:00:07;;;;;;;2.80;2.23;;;29.20;55.70;;;;;;5037565;28;20201;-69
2023/07/18 09:02:33;;;;;;;5.57;3.57;;;29.30;55.50;;;;;;5042479;28;20425;-69
2023/07/18 09:04:59;;;;;;;3.73;2.20;;;29.60;54.40;;;;;;5034123;28;20843;-70
2023/07/18 09:07:27;;;;;;;3.97;3.27;;;29.50;53.50;;;;;;5034306;28;20178;-69
2023/07/18 09:09:55;;;;;;;7.53;2.60;;;28.80;54.00;;;;;;5033858;28;20261;-69
2023/07/18 09:12:20;;;;;;;4.17;2.37;;;28.40;54.40;;;;;;5033973;28;20473;-69
2023/07/18 09:14:46;;;;;;;3.40;2.40;;;28.30;55.00;;;;;;5040125;28;20431;-69
2023/07/18 09:17:11;;;;;;;5.23;2.63;;;29.00;55.00;;;;;;5038596;28;20182;-70
2023/07/18 09:19:37;;;;;;;6.33;3.60;;;29.40;53.90;;;;;;5033807;28;20216;-69
2023/07/18 09:22:04;;;;;;;3.03;2.73;;;29.50;53.60;;;;;;5033892;28;20199;-69
2023/07/18 09:24:31;;;;;;;4.67;3.20;;;29.70;53.40;;;;;;5033333;28;20170;-70
2023/07/18 09:26:57;;;;;;;5.20;3.40;;;30.10;52.60;;;;;;5033817;28;21048;-70
2023/07/18 09:29:22;;;;;;;4.00;2.90;;;30.40;52.70;;;;;;5033586;28;20508;-69
2023/07/18 09:31:49;;;;;;;3.57;3.20;;;29.80;52.20;;;;;;5039005;28;20200;-69
2023/07/18 09:34:18;;;;;;;3.63;3.33;;;29.80;52.90;;;;;;5037952;28;20178;-69
2023/07/18 09:36:58;;;;;;;4.27;3.27;;;30.10;52.80;;;;;;5033665;28;20435;-69
2023/07/18 09:39:24;;;;;;;4.70;3.80;;;29.90;52.60;;;;;;5033373;28;20842;-70
2023/07/18 09:41:51;;;;;;;6.27;3.13;;;29.70;52.70;;;;;;5033516;28;20546;-69
2023/07/18 09:44:19;;;;;;;10.13;2.77;;;29.80;53.30;;;;;;5033588;28;20432;-70
2023/07/18 09:46:44;;;;;;;4.27;3.20;;;29.90;52.20;;;;;;5033512;28;20432;-70
2023/07/18 09:49:10;;;;;;;3.17;2.77;;;30.90;52.10;;;;;;5044345;28;20434;-69
2023/07/18 09:51:38;;;;;;;6.13;3.47;;;31.20;51.50;;;;;;5034846;28;20195;-69
2023/07/18 09:54:06;;;;;;;4.80;3.60;;;30.70;51.70;;;;;;5033325;28;20624;-69
2023/07/18 09:56:39;;;;;;;5.60;4.30;;;31.10;51.70;;;;;;5033228;28;20424;-69
2023/07/18 09:59:07;;;;;;;5.70;4.07;;;30.50;51.50;;;;;;5032771;28;20485;-69
2023/07/18 10:01:32;;;;;;;10.10;4.27;;;31.30;51.40;;;;;;5033109;28;20855;-69
2023/07/18 10:03:58;;;;;;;7.00;3.93;;;31.90;50.90;;;;;;5036985;28;20528;-69
2023/07/18 10:06:26;;;;;;;4.77;3.40;;;32.10;50.60;;;;;;5044383;28;20194;-69
2023/07/18 10:08:53;;;;;;;5.50;5.00;;;31.40;50.60;;;;;;5042868;28;20185;-69
2023/07/18 10:11:19;;;;;;;8.73;4.17;;;30.40;51.50;;;;;;5036603;28;20908;-69
2023/07/18 10:14:07;;;;;;;6.50;3.70;;;30.10;52.50;;;;;;5032849;28;20436;-69
2023/07/18 10:16:35;;;;;;;6.47;4.60;;;29.60;53.30;;;;;;5032913;28;20675;-69
2023/07/18 10:19:20;;;;;;;3.93;3.50;;;29.10;53.50;;;;;;5032478;28;20460;-70
2023/07/18 10:21:46;;;;;;;5.27;3.80;;;28.50;55.30;;;;;;5041769;28;20456;-69
2023/07/18 10:24:21;;;;;;;5.83;4.50;;;28.00;55.70;;;;;;5040835;28;20421;-69
2023/07/18 10:26:58;;;;;;;5.40;3.60;;;28.00;56.30;;;;;;5032854;28;20558;-69
2023/07/18 10:29:29;;;;;;;3.27;3.07;;;27.80;56.60;;;;;;5032302;28;20921;-69
2023/07/18 10:31:55;;;;;;;3.90;3.50;;;27.60;57.20;;;;;;5032617;28;20445;-69
2023/07/18 10:34:20;;;;;;;4.90;4.40;;;27.40;58.30;;;;;;5032134;28;20420;-69
2023/07/18 10:37:00;;;;;;;4.20;3.77;;;27.20;58.50;;;;;;5034574;28;20502;-69
2023/07/18 10:39:39;;;;;;;3.83;3.47;;;26.80;59.00;;;;;;5040248;28;20212;-69
2023/07/18 10:42:09;;;;;;;4.47;4.07;;;26.80;59.30;;;;;;5032441;28;20476;-68
2023/07/18 10:44:38;;;;;;;4.73;3.70;;;27.10;59.80;;;;;;5032462;28;20849;-69
2023/07/18 10:47:17;;;;;;;5.63;3.73;;;27.70;59.30;;;;;;5032248;28;20479;-69
2023/07/18 10:49:44;;;;;;;4.30;3.57;;;28.90;58.60;;;;;;5032210;28;20427;-69
2023/07/18 10:52:10;;;;;;;7.07;4.57;;;30.40;56.20;;;;;;5040893;28;20460;-70
2023/07/18 10:54:36;;;;;;;4.17;3.67;;;31.30;53.90;;;;;;5033716;28;20421;-69
2023/07/18 10:57:03;;;;;;;3.90;3.60;;;31.60;52.70;;;;;;5032242;28;20202;-69
2023/07/18 10:59:28;;;;;;;4.60;4.20;;;31.60;52.70;;;;;;5031757;28;20194;-70
2023/07/18 11:01:58;;;;;;;7.13;5.77;;;31.90;51.70;;;;;;5032102;28;20494;-69
2023/07/18 11:04:24;;;;;;;4.50;3.97;;;32.30;50.70;;;;;;5032135;28;20662;-69
2023/07/18 11:06:53;;;;;;;4.40;4.00;;;32.40;50.40;;;;;;5032258;28;20456;-69
2023/07/18 11:09:18;;;;;;;4.30;4.00;;;32.10;50.90;;;;;;5042997;28;20447;-69
2023/07/18 11:11:44;;;;;;;5.63;4.33;;;31.60;51.60;;;;;;5034757;28;20472;-70
2023/07/18 11:14:09;;;;;;;5.50;4.10;;;30.80;52.60;;;;;;5043574;28;20189;-70
2023/07/18 11:16:36;;;;;;;4.40;4.03;;;30.20;53.90;;;;;;5033743;28;20182;-70
2023/07/18 11:19:05;;;;;;;4.77;3.50;;;29.70;54.30;;;;;;5031605;28;20201;-70
2023/07/18 11:21:32;;;;;;;6.60;4.53;;;29.10;55.10;;;;;;5031718;28;20578;-69
2023/07/18 11:23:59;;;;;;;5.47;3.70;;;28.20;56.10;;;;;;5035787;28;20436;-70
2023/07/18 11:26:25;;;;;;;4.57;4.10;;;27.70;57.80;;;;;;5043100;28;20439;-69
2023/07/18 11:28:51;;;;;;;5.67;4.10;;;27.20;58.70;;;;;;5031471;28;20429;-69
2023/07/18 11:31:20;;;;;;;6.10;4.17;;;26.90;59.60;;;;;;5030518;28;20233;-70
2023/07/18 11:33:50;;;;;;;7.40;4.77;;;26.80;60.40;;;;;;5031866;28;20417;-70
2023/07/18 11:36:17;;;;;;;5.67;4.70;;;26.40;61.20;;;;;;5031728;28;20817;-69
2023/07/18 11:38:43;;;;;;;4.60;4.10;;;26.10;62.90;;;;;;5031399;28;21023;-69
2023/07/18 11:41:30;;;;;;;5.20;4.80;;;25.90;67.10;;;;;;5034843;28;20481;-69
2023/07/18 11:43:55;;;;;;;5.37;4.53;;;25.50;71.10;;;;;;5031830;28;20647;-69
2023/07/18 11:46:37;;;;;;;5.93;4.40;;;25.10;75.50;;;;;;5032706;28;20431;-69
2023/07/18 11:49:03;;;;;;;4.43;4.03;;;24.80;88.40;;;;;;5035418;28;20253;-69
2023/07/18 11:51:31;;;;;;;6.17;4.37;;;24.50;90.80;;;;;;5035380;28;20491;-69
2023/07/18 11:53:57;;;;;;;8.47;4.50;;;24.40;99.00;;;;;;5035609;28;20420;-69
2023/07/18 11:56:22;;;;;;;5.63;4.83;;;24.50;99.90;;;;;;5046088;28;21012;-70
2023/07/18 11:58:48;;;;;;;5.40;4.47;;;24.50;98.70;;;;;;5035207;28;20217;-70
2023/07/18 12:01:13;;;;;;;4.13;3.83;;;24.70;98.00;;;;;;5035582;28;20194;-69
2023/07/18 12:03:40;;;;;;;4.03;3.60;;;24.90;94.50;;;;;;5035409;28;20166;-69
2023/07/18 12:06:05;;;;;;;4.87;4.37;;;25.30;93.20;;;;;;5035301;28;20158;-69
2023/07/18 12:08:31;;;;;;;5.37;4.40;;;25.40;90.70;;;;;;5035223;28;20476;-69
2023/07/18 12:10:57;;;;;;;7.07;4.33;;;25.60;91.80;;;;;;5035411;28;20209;-70
2023/07/18 12:13:22;;;;;;;5.30;4.80;;;25.70;89.00;;;;;;5046450;28;20185;-70
2023/07/18 12:15:48;;;;;;;5.03;4.53;;;25.80;89.20;;;;;;5035197;28;20174;-69
2023/07/18 12:18:13;;;;;;;4.80;4.13;;;26.00;88.70;;;;;;5034764;28;20664;-69
2023/07/18 12:20:39;;;;;;;8.03;4.47;;;26.00;87.60;;;;;;5033625;28;20320;-69
2023/07/18 12:23:04;;;;;;;5.43;4.47;;;26.30;87.20;;;;;;5035060;28;20252;-69
2023/07/18 12:25:33;;;;;;;8.87;5.00;;;26.80;82.70;;;;;;5037574;28;20174;-70
2023/07/18 12:28:00;;;;;;;4.93;4.53;;;27.30;80.70;;;;;;5042320;28;20261;-69
2023/07/18 12:30:26;;;;;;;5.50;4.53;;;27.60;80.30;;;;;;5037476;28;20441;-69
2023/07/18 12:32:53;;;;;;;7.20;5.00;;;28.20;74.80;;;;;;5034857;28;20500;-69
2023/07/18 12:35:18;;;;;;;5.57;4.70;;;28.70;71.70;;;;;;5034688;28;20428;-69
2023/07/18 12:37:44;;;;;;;5.47;4.20;;;29.00;69.30;;;;;;5034677;28;20460;-69
2023/07/18 12:40:10;;;;;;;5.93;4.87;;;29.10;68.00;;;;;;5034485;28;20166;-69
2023/07/18 12:42:35;;;;;;;6.67;5.13;;;29.30;67.30;;;;;;5042949;28;20173;-71